createdAt,value
2018-07-28T00:01:13.000Z,37.1
2018-07-28T00:02:28.000Z,37
2018-07-28T00:03:28.000Z,37
2018-07-28T00:05:28.000Z,37
2018-07-28T00:06:28.000Z,37
2018-07-28T00:07:28.000Z,37.1
2018-07-28T00:09:29.000Z,37.1
2018-07-28T00:10:29.000Z,37.2
2018-07-28T00:12:29.000Z,37.2
2018-07-28T00:13:29.000Z,37.2
2018-07-28T00:14:29.000Z,37.2
2018-07-28T00:16:29.000Z,37.2
2018-07-28T00:17:29.000Z,37.2
2018-07-28T00:19:29.000Z,37.2
2018-07-28T00:20:29.000Z,37.2
2018-07-28T00:21:29.000Z,37.2
2018-07-28T00:23:13.000Z,37.2
2018-07-28T00:24:29.000Z,37.2
2018-07-28T00:25:29.000Z,37.2
2018-07-28T00:26:29.000Z,37.2
2018-07-28T00:27:29.000Z,37.2
2018-07-28T00:29:29.000Z,37.2
2018-07-28T00:31:29.000Z,37.1
2018-07-28T00:32:29.000Z,37.1
2018-07-28T00:34:29.000Z,37.1
2018-07-28T00:35:29.000Z,37.1
2018-07-28T00:37:29.000Z,37.1
2018-07-28T00:39:13.000Z,37.1
2018-07-28T00:40:29.000Z,37
2018-07-28T00:41:29.000Z,37
2018-07-28T00:43:29.000Z,37
2018-07-28T00:45:29.000Z,37
2018-07-28T00:46:29.000Z,37
2018-07-28T00:47:29.000Z,37
2018-07-28T00:48:29.000Z,37
2018-07-28T00:49:29.000Z,37.1
2018-07-28T00:50:29.000Z,37.1
2018-07-28T00:52:29.000Z,37.1
2018-07-28T00:53:29.000Z,37.1
2018-07-28T00:55:29.000Z,37.1
2018-07-28T00:57:29.000Z,37
2018-07-28T00:59:29.000Z,36.9
2018-07-28T01:01:29.000Z,36.9
2018-07-28T01:03:29.000Z,36.8
2018-07-28T01:04:29.000Z,36.8
2018-07-28T01:06:29.000Z,36.9
2018-07-28T01:08:29.000Z,36.9
2018-07-28T01:10:29.000Z,36.8
2018-07-28T01:11:29.000Z,36.8
2018-07-28T01:12:29.000Z,36.8
2018-07-28T01:14:29.000Z,36.9
2018-07-28T01:16:29.000Z,36.9
2018-07-28T01:17:29.000Z,36.9
2018-07-28T01:19:29.000Z,36.9
2018-07-28T01:20:29.000Z,37
2018-07-28T01:22:29.000Z,37
2018-07-28T01:23:29.000Z,37
2018-07-28T01:24:29.000Z,37
2018-07-28T01:25:29.000Z,37.1
2018-07-28T01:27:29.000Z,37.1
2018-07-28T01:29:29.000Z,37
2018-07-28T01:30:29.000Z,37
2018-07-28T01:31:29.000Z,37
2018-07-28T01:32:29.000Z,37.1
2018-07-28T01:34:29.000Z,37.1
2018-07-28T01:35:29.000Z,37.1
2018-07-28T01:37:29.000Z,37.1
2018-07-28T01:39:29.000Z,37
2018-07-28T01:41:29.000Z,36.9
2018-07-28T01:43:29.000Z,36.8
2018-07-28T01:44:29.000Z,36.8
2018-07-28T01:45:29.000Z,36.9
2018-07-28T01:46:29.000Z,36.9
2018-07-28T01:48:29.000Z,37
2018-07-28T01:49:29.000Z,37
2018-07-28T01:50:29.000Z,37
2018-07-28T01:51:29.000Z,37
2018-07-28T01:53:29.000Z,37
2018-07-28T01:54:29.000Z,37
2018-07-28T01:56:29.000Z,37
2018-07-28T01:58:29.000Z,36.9
2018-07-28T02:00:29.000Z,36.9
2018-07-28T02:01:29.000Z,36.9
2018-07-28T02:02:29.000Z,36.9
2018-07-28T02:04:29.000Z,36.9
2018-07-28T02:06:29.000Z,36.9
2018-07-28T02:08:29.000Z,36.8
2018-07-28T02:10:29.000Z,36.8
2018-07-28T02:12:29.000Z,36.8
2018-07-28T02:14:29.000Z,36.7
2018-07-28T02:16:29.000Z,36.7
2018-07-28T02:17:29.000Z,36.7
2018-07-28T02:19:29.000Z,36.7
2018-07-28T02:21:29.000Z,36.7
2018-07-28T02:23:29.000Z,36.7
2018-07-28T02:24:29.000Z,36.7
2018-07-28T02:26:29.000Z,36.8
2018-07-28T02:28:14.000Z,36.8
2018-07-28T02:29:29.000Z,36.8
2018-07-28T02:31:14.000Z,36.8
2018-07-28T02:32:29.000Z,36.7
2018-07-28T02:33:29.000Z,36.8
2018-07-28T02:35:29.000Z,36.8
2018-07-28T02:37:29.000Z,36.8
2018-07-28T02:39:29.000Z,36.7
2018-07-28T02:41:29.000Z,36.7
2018-07-28T02:43:29.000Z,36.6
2018-07-28T02:45:14.000Z,36.6
2018-07-28T02:46:29.000Z,36.6
2018-07-28T02:48:29.000Z,36.6
2018-07-28T02:50:29.000Z,36.6
2018-07-28T02:52:29.000Z,36.6
2018-07-28T02:54:29.000Z,36.6
2018-07-28T02:56:29.000Z,36.6
2018-07-28T02:58:29.000Z,36.6
2018-07-28T03:00:29.000Z,36.6
2018-07-28T03:01:29.000Z,36.6
2018-07-28T03:03:29.000Z,36.7
2018-07-28T03:04:29.000Z,36.8
2018-07-28T03:06:14.000Z,36.8
2018-07-28T03:07:29.000Z,36.7
2018-07-28T03:09:29.000Z,36.7
2018-07-28T03:11:29.000Z,36.6
2018-07-28T03:13:29.000Z,36.5
2018-07-28T03:14:29.000Z,36.5
2018-07-28T03:16:29.000Z,36.6
2018-07-28T03:17:29.000Z,36.6
2018-07-28T03:19:29.000Z,36.7
2018-07-28T03:21:29.000Z,36.7
2018-07-28T03:22:29.000Z,36.7
2018-07-28T03:24:29.000Z,36.7
2018-07-28T03:25:29.000Z,36.7
2018-07-28T03:27:29.000Z,36.7
2018-07-28T03:28:29.000Z,36.7
2018-07-28T03:29:29.000Z,36.7
2018-07-28T03:31:29.000Z,36.7
2018-07-28T03:32:29.000Z,36.7
2018-07-28T03:33:29.000Z,36.7
2018-07-28T03:35:29.000Z,36.8
2018-07-28T03:37:29.000Z,36.8
2018-07-28T03:38:29.000Z,36.8
2018-07-28T03:40:29.000Z,36.8
2018-07-28T03:41:29.000Z,36.8
2018-07-28T03:43:29.000Z,36.8
2018-07-28T03:44:29.000Z,36.9
2018-07-28T03:46:29.000Z,36.8
2018-07-28T03:48:29.000Z,36.8
2018-07-28T03:49:29.000Z,36.8
2018-07-28T03:51:29.000Z,36.8
2018-07-28T03:53:29.000Z,36.7
2018-07-28T03:55:29.000Z,36.6
2018-07-28T03:56:29.000Z,36.6
2018-07-28T03:58:29.000Z,36.7
2018-07-28T04:00:29.000Z,36.7
2018-07-28T04:02:29.000Z,36.6
2018-07-28T04:03:29.000Z,36.7
2018-07-28T04:04:29.000Z,36.7
2018-07-28T04:06:29.000Z,36.8
2018-07-28T04:07:29.000Z,36.8
2018-07-28T04:09:29.000Z,36.9
2018-07-28T04:11:14.000Z,36.9
2018-07-28T04:12:29.000Z,36.8
2018-07-28T04:13:29.000Z,36.8
2018-07-28T04:14:29.000Z,36.9
2018-07-28T04:16:29.000Z,36.9
2018-07-28T04:18:14.000Z,36.9
2018-07-28T04:19:29.000Z,36.8
2018-07-28T04:21:29.000Z,36.8
2018-07-28T04:23:29.000Z,36.8
2018-07-28T04:24:29.000Z,36.8
2018-07-28T04:26:29.000Z,36.8
2018-07-28T04:27:29.000Z,36.8
2018-07-28T04:28:29.000Z,36.9
2018-07-28T04:29:29.000Z,36.9
2018-07-28T04:31:13.000Z,37
2018-07-28T04:32:29.000Z,36.9
2018-07-28T04:34:29.000Z,36.9
2018-07-28T04:36:29.000Z,36.9
2018-07-28T04:37:29.000Z,36.9
2018-07-28T04:39:29.000Z,36.9
2018-07-28T04:40:29.000Z,36.9
2018-07-28T04:42:29.000Z,36.9
2018-07-28T04:44:29.000Z,36.8
2018-07-28T04:45:29.000Z,36.8
2018-07-28T04:47:29.000Z,36.8
2018-07-28T04:49:29.000Z,36.8
2018-07-28T04:51:29.000Z,36.7
2018-07-28T04:53:29.000Z,36.7
2018-07-28T04:55:29.000Z,36.7
2018-07-28T04:57:29.000Z,36.7
2018-07-28T04:58:29.000Z,36.7
2018-07-28T04:59:29.000Z,36.8
2018-07-28T05:00:29.000Z,36.8
2018-07-28T05:02:29.000Z,36.9
2018-07-28T05:03:29.000Z,37
2018-07-28T05:05:29.000Z,37
2018-07-28T05:07:29.000Z,36.9
2018-07-28T05:08:29.000Z,36.9
2018-07-28T05:10:29.000Z,36.9
2018-07-28T05:12:29.000Z,36.9
2018-07-28T05:14:29.000Z,36.9
2018-07-28T05:15:29.000Z,36.9
2018-07-28T05:17:29.000Z,36.9
2018-07-28T05:19:29.000Z,36.9
2018-07-28T05:21:29.000Z,36.9
2018-07-28T05:22:29.000Z,36.9
2018-07-28T05:24:29.000Z,37
2018-07-28T05:26:29.000Z,37
2018-07-28T05:27:29.000Z,37
2018-07-28T05:29:29.000Z,37
2018-07-28T05:30:29.000Z,37
2018-07-28T05:32:29.000Z,37
2018-07-28T05:33:29.000Z,37
2018-07-28T05:35:29.000Z,37.1
2018-07-28T05:36:29.000Z,37.1
2018-07-28T05:38:29.000Z,37.1
2018-07-28T05:40:29.000Z,37
2018-07-28T05:42:29.000Z,37
2018-07-28T05:44:29.000Z,37
2018-07-28T05:45:29.000Z,37
2018-07-28T05:47:29.000Z,37.1
2018-07-28T05:48:29.000Z,37.1
2018-07-28T05:50:29.000Z,37.1
2018-07-28T05:52:29.000Z,37
2018-07-28T05:53:29.000Z,37
2018-07-28T05:55:29.000Z,37.1
2018-07-28T05:56:29.000Z,37.1
2018-07-28T05:58:14.000Z,37.2
2018-07-28T05:59:29.000Z,37.2
2018-07-28T06:01:29.000Z,37.2
2018-07-28T06:03:29.000Z,37.2
2018-07-28T06:04:29.000Z,37.2
2018-07-28T06:06:29.000Z,37.4
2018-07-28T06:08:29.000Z,37.4
2018-07-28T06:10:29.000Z,37.5
2018-07-28T06:11:29.000Z,37.5
2018-07-28T06:13:29.000Z,37.6
2018-07-28T06:15:29.000Z,37.6
2018-07-28T06:17:29.000Z,37.6
2018-07-28T06:19:29.000Z,37.5
2018-07-28T06:20:29.000Z,37.6
2018-07-28T06:21:29.000Z,37.6
2018-07-28T06:23:29.000Z,37.7
2018-07-28T06:24:29.000Z,37.7
2018-07-28T06:26:29.000Z,37.7
2018-07-28T06:27:29.000Z,37.7
2018-07-28T06:28:29.000Z,37.7
2018-07-28T06:29:29.000Z,37.8
2018-07-28T06:31:29.000Z,37.8
2018-07-28T06:33:29.000Z,37.7
2018-07-28T06:35:29.000Z,37.6
2018-07-28T06:37:13.000Z,37.5
2018-07-28T06:38:29.000Z,37.5
2018-07-28T06:39:29.000Z,37.5
2018-07-28T06:41:29.000Z,37.5
2018-07-28T06:43:29.000Z,37.5
2018-07-28T06:45:29.000Z,37.5
2018-07-28T06:46:29.000Z,37.5
2018-07-28T06:48:29.000Z,37.5
2018-07-28T06:49:29.000Z,37.5
2018-07-28T06:51:29.000Z,37.6
2018-07-28T06:52:29.000Z,37.6
2018-07-28T06:53:29.000Z,37.7
2018-07-28T06:55:29.000Z,37.7
2018-07-28T06:56:29.000Z,37.7
2018-07-28T06:58:29.000Z,37.7
2018-07-28T07:00:29.000Z,37.6
2018-07-28T07:02:29.000Z,37.6
2018-07-28T07:04:29.000Z,37.5
2018-07-28T07:05:29.000Z,37.5
2018-07-28T07:07:29.000Z,37.4
2018-07-28T07:09:29.000Z,37.3
2018-07-28T07:10:29.000Z,37.3
2018-07-28T07:12:29.000Z,37.3
2018-07-28T07:13:29.000Z,37.4
2018-07-28T07:14:29.000Z,37.4
2018-07-28T07:15:29.000Z,37.4
2018-07-28T07:17:29.000Z,37.5
2018-07-28T07:19:29.000Z,37.4
2018-07-28T07:21:29.000Z,37.3
2018-07-28T07:22:29.000Z,37.3
2018-07-28T07:24:29.000Z,37.3
2018-07-28T07:25:29.000Z,37.3
2018-07-28T07:27:29.000Z,37.4
2018-07-28T07:29:29.000Z,37.3
2018-07-28T07:31:29.000Z,37.2
2018-07-28T07:33:13.000Z,37.1
2018-07-28T07:34:29.000Z,37.1
2018-07-28T07:35:29.000Z,37.1
2018-07-28T07:37:29.000Z,37.1
2018-07-28T07:39:29.000Z,37.1
2018-07-28T07:41:29.000Z,37
2018-07-28T07:42:29.000Z,37
2018-07-28T07:44:29.000Z,37
2018-07-28T07:46:29.000Z,37
2018-07-28T07:47:29.000Z,37
2018-07-28T07:49:29.000Z,37.1
2018-07-28T07:51:13.000Z,37.1
2018-07-28T07:52:29.000Z,37.1
2018-07-28T07:54:29.000Z,37.1
2018-07-28T07:56:29.000Z,37.1
2018-07-28T07:57:29.000Z,37.1
2018-07-28T07:58:29.000Z,37.2
2018-07-28T08:00:29.000Z,37.3
2018-07-28T08:01:29.000Z,37.3
2018-07-28T08:03:29.000Z,37.4
2018-07-28T08:04:29.000Z,37.4
2018-07-28T08:06:29.000Z,37.4
2018-07-28T08:07:29.000Z,37.4
2018-07-28T08:09:29.000Z,37.4
2018-07-28T08:10:29.000Z,37.4
2018-07-28T08:11:29.000Z,37.4
2018-07-28T08:12:29.000Z,37.4
2018-07-28T08:14:29.000Z,37.5
2018-07-28T08:16:29.000Z,37.5
2018-07-28T08:17:29.000Z,37.6
2018-07-28T08:19:29.000Z,37.7
2018-07-28T08:21:29.000Z,37.7
2018-07-28T08:22:29.000Z,37.7
2018-07-28T08:23:29.000Z,37.8
2018-07-28T08:24:29.000Z,37.9
2018-07-28T08:26:29.000Z,38
2018-07-28T08:28:29.000Z,38
2018-07-28T08:29:29.000Z,38.1
2018-07-28T08:30:29.000Z,38.1
2018-07-28T08:32:29.000Z,38.2
2018-07-28T08:36:15.000Z,37.8
2018-07-28T08:38:15.000Z,37.9
2018-07-28T08:40:15.000Z,37.9
2018-07-28T08:42:15.000Z,37.8
2018-07-28T08:43:15.000Z,37.9
2018-07-28T08:45:15.000Z,37.9
2018-07-28T08:47:15.000Z,37.9
2018-07-28T08:48:15.000Z,37.9
2018-07-28T08:50:15.000Z,37.9
2018-07-28T08:52:15.000Z,37.8
2018-07-28T08:53:22.000Z,37.8
2018-07-28T08:55:22.000Z,37.9
2018-07-28T08:56:22.000Z,37.9
2018-07-28T08:58:22.000Z,37.8
2018-07-28T09:00:22.000Z,37.7
2018-07-28T09:01:22.000Z,37.7
2018-07-28T09:02:22.000Z,37.7
2018-07-28T09:04:22.000Z,37.7
2018-07-28T09:06:22.000Z,37.7
2018-07-28T09:08:22.000Z,37.6
2018-07-28T09:09:22.000Z,37.6
2018-07-28T09:11:22.000Z,37.6
2018-07-28T09:13:22.000Z,37.6
2018-07-28T09:14:22.000Z,37.6
2018-07-28T09:16:22.000Z,37.6
2018-07-28T09:17:22.000Z,37.6
2018-07-28T09:18:22.000Z,37.7
2018-07-28T09:20:22.000Z,37.7
2018-07-28T09:21:22.000Z,37.7
2018-07-28T09:23:22.000Z,37.7
2018-07-28T09:24:22.000Z,37.7
2018-07-28T09:25:22.000Z,37.8
2018-07-28T09:26:22.000Z,37.8
2018-07-28T09:28:22.000Z,37.8
2018-07-28T09:30:22.000Z,37.8
2018-07-28T09:32:22.000Z,37.7
2018-07-28T09:33:22.000Z,37.7
2018-07-28T09:34:22.000Z,37.8
2018-07-28T09:36:22.000Z,37.9
2018-07-28T09:38:22.000Z,37.9
2018-07-28T09:39:22.000Z,37.9
2018-07-28T09:41:22.000Z,38
2018-07-28T09:43:07.000Z,38.1
2018-07-28T09:44:22.000Z,38.1
2018-07-28T09:46:07.000Z,38.2
2018-07-28T09:47:22.000Z,38.2
2018-07-28T09:48:22.000Z,38.2
2018-07-28T09:50:22.000Z,38.4
2018-07-28T09:51:22.000Z,38.4
2018-07-28T09:53:07.000Z,38.5
2018-07-28T09:54:22.000Z,38.5
2018-07-28T09:56:22.000Z,38.5
2018-07-28T09:58:22.000Z,38.4
2018-07-28T09:59:22.000Z,38.4
2018-07-28T10:01:22.000Z,38.5
2018-07-28T10:03:22.000Z,38.6
2018-07-28T10:05:22.000Z,38.7
2018-07-28T10:06:22.000Z,38.8
2018-07-28T10:07:22.000Z,38.9
2018-07-28T10:08:22.000Z,39
2018-07-28T10:10:07.000Z,39.1
2018-07-28T10:11:22.000Z,39.1
2018-07-28T10:12:22.000Z,39.1
2018-07-28T10:14:07.000Z,39.2
2018-07-28T10:15:22.000Z,39.1
2018-07-28T10:16:22.000Z,39.1
2018-07-28T10:18:22.000Z,39.1
2018-07-28T10:19:22.000Z,39.1
2018-07-28T10:21:22.000Z,39.1
2018-07-28T10:23:07.000Z,39
2018-07-28T10:24:22.000Z,38.9
2018-07-28T10:26:22.000Z,38.8
2018-07-28T10:27:22.000Z,38.8
2018-07-28T10:29:07.000Z,38.8
2018-07-28T10:30:22.000Z,38.7
2018-07-28T10:31:22.000Z,38.7
2018-07-28T10:33:07.000Z,38.8
2018-07-28T10:34:22.000Z,38.7
2018-07-28T10:35:22.000Z,38.7
2018-07-28T10:37:22.000Z,38.6
2018-07-28T10:38:22.000Z,38.6
2018-07-28T10:39:22.000Z,38.6
2018-07-28T10:40:22.000Z,38.7
2018-07-28T10:41:22.000Z,38.7
2018-07-28T10:43:22.000Z,38.6
2018-07-28T10:44:22.000Z,38.6
2018-07-28T10:46:22.000Z,38.6
2018-07-28T10:48:22.000Z,38.6
2018-07-28T10:50:22.000Z,38.5
2018-07-28T10:51:22.000Z,38.5
2018-07-28T10:53:22.000Z,38.7
2018-07-28T10:54:22.000Z,38.7
2018-07-28T10:55:22.000Z,38.9
2018-07-28T10:57:22.000Z,39.2
2018-07-28T10:58:22.000Z,39.3
2018-07-28T10:59:22.000Z,39.4
2018-07-28T11:00:22.000Z,39.6
2018-07-28T11:01:22.000Z,39.7
2018-07-28T11:03:07.000Z,39.7
2018-07-28T11:04:22.000Z,39.6
2018-07-28T11:05:22.000Z,39.6
2018-07-28T11:07:22.000Z,39.7
2018-07-28T11:08:22.000Z,39.7
2018-07-28T11:10:22.000Z,39.7
2018-07-28T11:11:22.000Z,39.7
2018-07-28T11:13:22.000Z,39.8
2018-07-28T11:15:22.000Z,40.1
2018-07-28T11:16:22.000Z,40.1
2018-07-28T11:18:22.000Z,40.1
2018-07-28T11:20:22.000Z,39.8
2018-07-28T11:21:22.000Z,39.8
2018-07-28T11:23:22.000Z,39.7
2018-07-28T11:25:22.000Z,39.5
2018-07-28T11:26:22.000Z,39.5
2018-07-28T11:28:22.000Z,39.6
2018-07-28T11:30:22.000Z,39.8
2018-07-28T11:31:22.000Z,39.9
2018-07-28T11:32:22.000Z,40
2018-07-28T11:34:22.000Z,40.1
2018-07-28T11:35:22.000Z,40.1
2018-07-28T11:37:22.000Z,40
2018-07-28T11:38:22.000Z,40
2018-07-28T11:40:22.000Z,40.4
2018-07-28T11:41:22.000Z,40.5
2018-07-28T11:42:22.000Z,41
2018-07-28T11:44:22.000Z,41.7
2018-07-28T11:45:22.000Z,41.5
2018-07-28T11:46:22.000Z,41.4
2018-07-28T11:48:22.000Z,41.1
2018-07-28T11:49:22.000Z,41.1
2018-07-28T11:51:07.000Z,41.7
2018-07-28T11:52:22.000Z,41.9
2018-07-28T11:54:22.000Z,43.1
2018-07-28T11:56:22.000Z,44.7
2018-07-28T11:58:07.000Z,46
2018-07-28T11:59:22.000Z,46.7
2018-07-28T12:01:07.000Z,47.5
2018-07-28T12:02:22.000Z,47.9
2018-07-28T12:03:22.000Z,48.3
2018-07-28T12:05:22.000Z,48.7
2018-07-28T12:07:22.000Z,49
2018-07-28T12:08:22.000Z,49.2
2018-07-28T12:09:22.000Z,48.8
2018-07-28T12:11:22.000Z,46.7
2018-07-28T12:12:22.000Z,45.7
2018-07-28T12:13:22.000Z,44.8
2018-07-28T12:14:22.000Z,44
2018-07-28T12:16:22.000Z,42.9
2018-07-28T12:18:22.000Z,41.9
2018-07-28T12:19:22.000Z,41.6
2018-07-28T12:21:22.000Z,41
2018-07-28T12:23:22.000Z,40.5
2018-07-28T12:24:22.000Z,40.3
2018-07-28T12:25:22.000Z,40.2
2018-07-28T12:27:22.000Z,40
2018-07-28T12:28:22.000Z,39.9
2018-07-28T12:30:22.000Z,39.7
2018-07-28T12:31:22.000Z,39.7
2018-07-28T12:33:22.000Z,39.5
2018-07-28T12:34:22.000Z,39.5
2018-07-28T12:35:22.000Z,39.4
2018-07-28T12:37:22.000Z,39.3
2018-07-28T12:39:22.000Z,39.2
2018-07-28T12:41:22.000Z,39
2018-07-28T12:42:22.000Z,38.9
2018-07-28T12:44:22.000Z,38.8
2018-07-28T12:45:22.000Z,38.8
2018-07-28T12:46:22.000Z,38.8
2018-07-28T12:48:22.000Z,38.8
2018-07-28T12:50:22.000Z,38.7
2018-07-28T12:52:22.000Z,38.6
2018-07-28T12:53:22.000Z,38.6
2018-07-28T12:55:22.000Z,38.6
2018-07-28T12:56:22.000Z,38.6
2018-07-28T12:58:22.000Z,38.6
2018-07-28T13:00:22.000Z,38.5
2018-07-28T13:01:22.000Z,38.5
2018-07-28T13:02:22.000Z,38.5
2018-07-28T13:03:22.000Z,38.5
2018-07-28T13:05:22.000Z,38.5
2018-07-28T13:07:22.000Z,38.5
2018-07-28T13:08:22.000Z,38.5
2018-07-28T13:09:22.000Z,38.5
2018-07-28T13:10:22.000Z,38.6
2018-07-28T13:12:22.000Z,38.5
2018-07-28T13:13:22.000Z,38.5
2018-07-28T13:15:22.000Z,38.5
2018-07-28T13:17:22.000Z,38.4
2018-07-28T13:19:22.000Z,38.3
2018-07-28T13:21:22.000Z,38.3
2018-07-28T13:22:22.000Z,38.2
2018-07-28T13:24:22.000Z,38.2
2018-07-28T13:26:22.000Z,38.1
2018-07-28T13:28:22.000Z,38
2018-07-28T13:30:22.000Z,38
2018-07-28T13:32:22.000Z,37.9
2018-07-28T13:34:22.000Z,37.9
2018-07-28T13:35:22.000Z,37.9
2018-07-28T13:37:22.000Z,38
2018-07-28T13:38:22.000Z,38
2018-07-28T13:39:22.000Z,38.1
2018-07-28T13:41:22.000Z,38.1
2018-07-28T13:43:22.000Z,38.1
2018-07-28T13:45:22.000Z,38
2018-07-28T13:46:22.000Z,38
2018-07-28T13:47:22.000Z,38
2018-07-28T13:49:22.000Z,38
2018-07-28T13:51:22.000Z,38
2018-07-28T13:52:22.000Z,38
2018-07-28T13:54:22.000Z,38
2018-07-28T13:56:22.000Z,38
2018-07-28T13:57:22.000Z,38
2018-07-28T13:59:07.000Z,38.1
2018-07-28T14:00:22.000Z,38
2018-07-28T14:02:22.000Z,38
2018-07-28T14:03:22.000Z,37.9
2018-07-28T14:04:22.000Z,38
2018-07-28T14:06:22.000Z,38
2018-07-28T14:07:22.000Z,38
2018-07-28T14:09:22.000Z,38
2018-07-28T14:10:22.000Z,38
2018-07-28T14:12:22.000Z,38
2018-07-28T14:13:22.000Z,38.1
2018-07-28T14:15:22.000Z,38.1
2018-07-28T14:16:22.000Z,38.1
2018-07-28T14:17:22.000Z,38.1
2018-07-28T14:18:22.000Z,38.1
2018-07-28T14:20:22.000Z,38.2
2018-07-28T14:21:22.000Z,38.2
2018-07-28T14:23:22.000Z,38.1
2018-07-28T14:24:22.000Z,38.1
2018-07-28T14:26:22.000Z,38.1
2018-07-28T14:28:22.000Z,38
2018-07-28T14:30:22.000Z,37.9
2018-07-28T14:32:22.000Z,37.9
2018-07-28T14:33:22.000Z,37.9
2018-07-28T14:34:22.000Z,37.9
2018-07-28T14:36:22.000Z,37.9
2018-07-28T14:38:22.000Z,37.9
2018-07-28T14:40:22.000Z,37.8
2018-07-28T14:42:22.000Z,37.7
2018-07-28T14:44:22.000Z,37.7
2018-07-28T14:45:22.000Z,37.7
2018-07-28T14:46:22.000Z,37.7
2018-07-28T14:48:22.000Z,37.8
2018-07-28T14:50:22.000Z,37.8
2018-07-28T14:52:22.000Z,37.7
2018-07-28T14:53:22.000Z,37.7
2018-07-28T14:55:22.000Z,37.7
2018-07-28T14:57:22.000Z,37.7
2018-07-28T14:58:22.000Z,37.7
2018-07-28T15:00:07.000Z,37.8
2018-07-28T15:01:22.000Z,37.8
2018-07-28T15:03:22.000Z,37.8
2018-07-28T15:05:22.000Z,37.8
2018-07-28T15:07:22.000Z,37.8
2018-07-28T15:08:22.000Z,37.8
2018-07-28T15:09:22.000Z,37.8
2018-07-28T15:11:22.000Z,37.9
2018-07-28T15:12:22.000Z,37.9
2018-07-28T15:14:22.000Z,37.9
2018-07-28T15:15:22.000Z,37.9
2018-07-28T15:17:22.000Z,37.9
2018-07-28T15:18:22.000Z,37.9
2018-07-28T15:19:22.000Z,38
2018-07-28T15:20:22.000Z,38
2018-07-28T15:21:22.000Z,38.1
2018-07-28T15:23:07.000Z,38.1
2018-07-28T15:24:22.000Z,38
2018-07-28T15:25:22.000Z,38
2018-07-28T15:26:22.000Z,38
2018-07-28T15:28:22.000Z,38
2018-07-28T15:29:22.000Z,38.1
2018-07-28T15:30:22.000Z,38.1
2018-07-28T15:31:22.000Z,38.1
2018-07-28T15:33:22.000Z,38.2
2018-07-28T15:34:22.000Z,38.2
2018-07-28T15:35:22.000Z,38.2
2018-07-28T15:37:22.000Z,38.1
2018-07-28T15:38:22.000Z,38.1
2018-07-28T15:40:22.000Z,38.1
2018-07-28T15:42:22.000Z,38.1
2018-07-28T15:43:22.000Z,38.1
2018-07-28T15:44:22.000Z,38.2
2018-07-28T15:45:22.000Z,38.2
2018-07-28T15:47:07.000Z,38.3
2018-07-28T15:48:22.000Z,38.3
2018-07-28T15:50:22.000Z,38.3
2018-07-28T15:51:22.000Z,38.3
2018-07-28T15:53:22.000Z,38.3
2018-07-28T15:55:22.000Z,38.2
2018-07-28T15:56:22.000Z,38.2
2018-07-28T15:57:22.000Z,38.2
2018-07-28T15:59:22.000Z,38.2
2018-07-28T16:01:22.000Z,38.2
2018-07-28T16:02:23.000Z,38.2
2018-07-28T16:03:23.000Z,38.2
2018-07-28T16:04:23.000Z,38.2
2018-07-28T16:06:23.000Z,38.2
2018-07-28T16:08:23.000Z,38.2
2018-07-28T16:10:23.000Z,38.2
2018-07-28T16:12:23.000Z,38.2
2018-07-28T16:14:23.000Z,38.3
2018-07-28T16:15:23.000Z,38.3
2018-07-28T16:16:23.000Z,38.4
2018-07-28T16:17:23.000Z,38.5
2018-07-28T16:19:23.000Z,38.6
2018-07-28T16:21:23.000Z,38.5
2018-07-28T16:22:23.000Z,38.5
2018-07-28T16:24:23.000Z,38.5
2018-07-28T16:25:23.000Z,38.5
2018-07-28T16:26:23.000Z,38.5
2018-07-28T16:27:23.000Z,38.6
2018-07-28T16:29:23.000Z,38.7
2018-07-28T16:30:23.000Z,38.8
2018-07-28T16:32:23.000Z,38.8
2018-07-28T16:33:23.000Z,38.8
2018-07-28T16:35:23.000Z,38.7
2018-07-28T16:36:23.000Z,38.7
2018-07-28T16:38:23.000Z,38.7
2018-07-28T16:40:23.000Z,38.6
2018-07-28T16:42:23.000Z,38.4
2018-07-28T16:44:23.000Z,38.4
2018-07-28T16:45:23.000Z,38.4
2018-07-28T16:47:23.000Z,38.5
2018-07-28T16:49:23.000Z,38.5
2018-07-28T16:51:23.000Z,38.5
2018-07-28T16:53:23.000Z,38.5
2018-07-28T16:55:23.000Z,38.3
2018-07-28T16:57:23.000Z,38.3
2018-07-28T16:58:23.000Z,38.3
2018-07-28T16:59:23.000Z,38.4
2018-07-28T17:01:23.000Z,38.5
2018-07-28T17:02:23.000Z,38.6
2018-07-28T17:03:23.000Z,38.6
2018-07-28T17:05:23.000Z,38.7
2018-07-28T17:07:08.000Z,38.7
2018-07-28T17:08:23.000Z,38.6
2018-07-28T17:09:23.000Z,38.7
2018-07-28T17:10:23.000Z,38.7
2018-07-28T17:11:23.000Z,38.8
2018-07-28T17:12:23.000Z,38.8
2018-07-28T17:14:23.000Z,38.9
2018-07-28T17:15:23.000Z,38.9
2018-07-28T17:17:23.000Z,38.9
2018-07-28T17:18:23.000Z,38.8
2018-07-28T17:20:23.000Z,38.7
2018-07-28T17:22:23.000Z,38.7
2018-07-28T17:24:23.000Z,38.5
2018-07-28T17:25:23.000Z,38.4
2018-07-28T17:27:08.000Z,38.4
2018-07-28T17:28:23.000Z,38.4
2018-07-28T17:29:23.000Z,38.3
2018-07-28T17:31:08.000Z,38.3
2018-07-28T17:32:23.000Z,38.2
2018-07-28T17:34:23.000Z,38.2
2018-07-28T17:35:23.000Z,38.1
2018-07-28T17:37:23.000Z,38.1
2018-07-28T17:38:23.000Z,38
2018-07-28T17:40:23.000Z,38
2018-07-28T17:42:23.000Z,38
2018-07-28T17:44:23.000Z,37.8
2018-07-28T17:46:23.000Z,37.8
2018-07-28T17:47:23.000Z,37.8
2018-07-28T17:49:23.000Z,37.8
2018-07-28T17:51:23.000Z,37.7
2018-07-28T17:52:23.000Z,37.8
2018-07-28T17:54:23.000Z,37.8
2018-07-28T17:56:08.000Z,37.9
2018-07-28T17:57:23.000Z,37.8
2018-07-28T17:59:23.000Z,37.8
2018-07-28T18:01:08.000Z,37.9
2018-07-28T18:02:23.000Z,37.8
2018-07-28T18:03:23.000Z,37.8
2018-07-28T18:04:23.000Z,37.9
2018-07-28T18:06:23.000Z,37.9
2018-07-28T18:07:23.000Z,37.9
2018-07-28T18:09:23.000Z,37.9
2018-07-28T18:11:07.000Z,37.9
2018-07-28T18:12:23.000Z,37.9
2018-07-28T18:14:23.000Z,37.8
2018-07-28T18:16:23.000Z,37.7
2018-07-28T18:17:23.000Z,37.6
2018-07-28T18:18:23.000Z,37.6
2018-07-28T18:19:23.000Z,37.7
2018-07-28T18:21:23.000Z,37.7
2018-07-28T18:22:23.000Z,37.7
2018-07-28T18:24:23.000Z,37.8
2018-07-28T18:25:23.000Z,37.8
2018-07-28T18:27:23.000Z,37.8
2018-07-28T18:29:23.000Z,37.7
2018-07-28T18:31:23.000Z,37.5
2018-07-28T18:32:23.000Z,37.5
2018-07-28T18:34:23.000Z,37.5
2018-07-28T18:36:23.000Z,37.5
2018-07-28T18:38:23.000Z,37.4
2018-07-28T18:39:23.000Z,37.4
2018-07-28T18:41:23.000Z,37.4
2018-07-28T18:42:23.000Z,37.5
2018-07-28T18:44:23.000Z,37.5
2018-07-28T18:45:23.000Z,37.5
2018-07-28T18:46:23.000Z,37.5
2018-07-28T18:48:23.000Z,37.5
2018-07-28T18:50:23.000Z,37.5
2018-07-28T18:51:23.000Z,37.4
2018-07-28T18:52:23.000Z,37.5
2018-07-28T18:53:23.000Z,37.5
2018-07-28T18:55:23.000Z,37.5
2018-07-28T18:56:23.000Z,37.5
2018-07-28T18:58:23.000Z,37.5
2018-07-28T18:59:23.000Z,37.5
2018-07-28T19:00:23.000Z,37.5
2018-07-28T19:02:23.000Z,37.5
2018-07-28T19:03:23.000Z,37.5
2018-07-28T19:04:23.000Z,37.5
2018-07-28T19:05:23.000Z,37.6
2018-07-28T19:06:23.000Z,37.6
2018-07-28T19:07:23.000Z,37.7
2018-07-28T19:09:07.000Z,37.8
2018-07-28T19:10:23.000Z,37.7
2018-07-28T19:11:23.000Z,37.7
2018-07-28T19:13:07.000Z,37.7
2018-07-28T19:14:23.000Z,37.7
2018-07-28T19:16:23.000Z,37.5
2018-07-28T19:18:23.000Z,37.4
2018-07-28T19:19:23.000Z,37.4
2018-07-28T19:21:23.000Z,37.5
2018-07-28T19:23:23.000Z,37.4
2018-07-28T19:24:23.000Z,37.4
2018-07-28T19:26:23.000Z,37.4
2018-07-28T19:27:23.000Z,37.4
2018-07-28T19:29:23.000Z,37.4
2018-07-28T19:30:23.000Z,37.4
2018-07-28T19:32:23.000Z,37.5
2018-07-28T19:33:23.000Z,37.5
2018-07-28T19:34:23.000Z,37.5
2018-07-28T19:36:23.000Z,37.5
2018-07-28T19:38:23.000Z,37.5
2018-07-28T19:39:23.000Z,37.5
2018-07-28T19:40:23.000Z,37.5
2018-07-28T19:42:23.000Z,37.5
2018-07-28T19:44:23.000Z,37.4
2018-07-28T19:45:23.000Z,37.4
2018-07-28T19:47:23.000Z,37.4
2018-07-28T19:49:23.000Z,37.3
2018-07-28T19:50:23.000Z,37.3
2018-07-28T19:51:23.000Z,37.3
2018-07-28T19:53:23.000Z,37.3
2018-07-28T19:54:23.000Z,37.3
2018-07-28T19:55:23.000Z,37.3
2018-07-28T19:57:23.000Z,37.4
2018-07-28T19:59:23.000Z,37.4
2018-07-28T20:01:23.000Z,37.3
2018-07-28T20:02:23.000Z,37.3
2018-07-28T20:03:23.000Z,37.3
2018-07-28T20:04:23.000Z,37.4
2018-07-28T20:05:23.000Z,37.4
2018-07-28T20:06:23.000Z,37.4
2018-07-28T20:08:23.000Z,37.4
2018-07-28T20:09:23.000Z,37.5
2018-07-28T20:11:23.000Z,37.4
2018-07-28T20:13:23.000Z,37.4
2018-07-28T20:15:23.000Z,37.3
2018-07-28T20:16:23.000Z,37.2
2018-07-28T20:18:22.000Z,37.2
2018-07-28T20:20:22.000Z,37.2
2018-07-28T20:22:22.000Z,37.2
2018-07-28T20:23:22.000Z,37.2
2018-07-28T20:25:22.000Z,37.2
2018-07-28T20:26:22.000Z,37.2
2018-07-28T20:28:22.000Z,37.2
2018-07-28T20:29:22.000Z,37.2
2018-07-28T20:31:07.000Z,37.3
2018-07-28T20:32:22.000Z,37.2
2018-07-28T20:33:22.000Z,37.2
2018-07-28T20:35:22.000Z,37.2
2018-07-28T20:36:22.000Z,37.3
2018-07-28T20:38:22.000Z,37.3
2018-07-28T20:40:22.000Z,37.2